sensor_id;sensor_type;location;lat;lon;timestamp;pressure;altitude;pressure_sealevel;temperature;humidity
44825;BME280;30542;47.928;2.138;2022-11-06T00:04:16;100556.34;;;18.94;55.18
44825;BME280;30542;47.928;2.138;2022-11-06T00:09:18;100549.09;;;18.90;55.21
44825;BME280;30542;47.928;2.138;2022-11-06T00:14:19;100560.53;;;18.85;55.09
44825;BME280;30542;47.928;2.138;2022-11-06T00:19:19;100576.81;;;18.83;54.97
44825;BME280;30542;47.928;2.138;2022-11-06T00:24:20;100577.94;;;18.87;54.64
44825;BME280;30542;47.928;2.138;2022-11-06T00:29:20;100563.47;;;18.83;54.70
44825;BME280;30542;47.928;2.138;2022-11-06T00:34:21;100556.75;;;18.81;54.89
44825;BME280;30542;47.928;2.138;2022-11-06T00:39:21;100545.53;;;18.79;54.85
44825;BME280;30542;47.928;2.138;2022-11-06T00:44:21;100546.03;;;18.76;55.39
44825;BME280;30542;47.928;2.138;2022-11-06T00:49:22;100527.84;;;18.73;55.39
44825;BME280;30542;47.928;2.138;2022-11-06T00:54:22;100523.22;;;18.68;55.13
44825;BME280;30542;47.928;2.138;2022-11-06T00:59:23;100514.44;;;18.68;55.40
44825;BME280;30542;47.928;2.138;2022-11-06T01:04:24;100501.31;;;18.66;55.44
44825;BME280;30542;47.928;2.138;2022-11-06T01:09:26;100483.47;;;18.67;55.00
44825;BME280;30542;47.928;2.138;2022-11-06T01:14:27;100483.47;;;18.67;54.62
44825;BME280;30542;47.928;2.138;2022-11-06T01:19:28;100483.41;;;18.61;55.00
44825;BME280;30542;47.928;2.138;2022-11-06T01:24:29;100464.22;;;18.64;55.10
44825;BME280;30542;47.928;2.138;2022-11-06T01:29:29;100462.13;;;18.67;55.11
44825;BME280;30542;47.928;2.138;2022-11-06T01:34:30;100450.03;;;18.59;55.17
44825;BME280;30542;47.928;2.138;2022-11-06T01:39:30;100447.59;;;18.57;55.29
44825;BME280;30542;47.928;2.138;2022-11-06T01:49:40;100459.03;;;18.53;55.05
44825;BME280;30542;47.928;2.138;2022-11-06T01:54:42;100451.78;;;18.48;55.26
44825;BME280;30542;47.928;2.138;2022-11-06T01:59:45;100456.88;;;18.50;55.41
44825;BME280;30542;47.928;2.138;2022-11-06T02:04:47;100461.16;;;18.51;54.97
44825;BME280;30542;47.928;2.138;2022-11-06T02:09:48;100450.44;;;18.46;55.30
44825;BME280;30542;47.928;2.138;2022-11-06T02:26:23;100411.41;;;18.39;55.49
44825;BME280;30542;47.928;2.138;2022-11-06T02:31:33;100384.72;;;18.34;55.36
44825;BME280;30542;47.928;2.138;2022-11-06T02:36:40;100385.19;;;18.31;55.53
44825;BME280;30542;47.928;2.138;2022-11-06T02:41:44;100390.03;;;18.34;55.70
44825;BME280;30542;47.928;2.138;2022-11-06T02:46:49;100380.72;;;18.37;55.68
44825;BME280;30542;47.928;2.138;2022-11-06T02:51:55;100396.72;;;18.37;55.63
44825;BME280;30542;47.928;2.138;2022-11-06T02:56:59;100372.88;;;18.25;55.81
44825;BME280;30542;47.928;2.138;2022-11-06T03:02:06;100363.38;;;18.34;55.50
44825;BME280;30542;47.928;2.138;2022-11-06T03:07:18;100360.94;;;18.33;55.36
44825;BME280;30542;47.928;2.138;2022-11-06T03:12:28;100377.69;;;18.28;55.74
44825;BME280;30542;47.928;2.138;2022-11-06T03:17:43;100368.41;;;18.31;55.28
44825;BME280;30542;47.928;2.138;2022-11-06T03:23:14;100360.59;;;18.24;55.50
44825;BME280;30542;47.928;2.138;2022-11-06T03:33:47;100342.69;;;18.20;55.86
44825;BME280;30542;47.928;2.138;2022-11-06T03:38:58;100321.91;;;18.22;55.88
44825;BME280;30542;47.928;2.138;2022-11-06T03:44:02;100318.16;;;18.18;55.28
44825;BME280;30542;47.928;2.138;2022-11-06T03:49:09;100325.09;;;18.19;55.45
44825;BME280;30542;47.928;2.138;2022-11-06T03:54:18;100300.81;;;18.20;55.36
44825;BME280;30542;47.928;2.138;2022-11-06T03:59:21;100318.38;;;18.16;55.63
44825;BME280;30542;47.928;2.138;2022-11-06T04:04:40;100326.16;;;18.18;55.27
44825;BME280;30542;47.928;2.138;2022-11-06T04:09:46;100312.38;;;18.04;55.38
44825;BME280;30542;47.928;2.138;2022-11-06T04:15:09;100317.59;;;18.16;55.09
44825;BME280;30542;47.928;2.138;2022-11-06T04:20:15;100313.56;;;18.13;55.28
44825;BME280;30542;47.928;2.138;2022-11-06T04:31:21;100310.69;;;18.47;54.58
44825;BME280;30542;47.928;2.138;2022-11-06T04:41:46;100279.22;;;18.76;53.90
44825;BME280;30542;47.928;2.138;2022-11-06T04:46:58;100276.88;;;18.90;54.00
44825;BME280;30542;47.928;2.138;2022-11-06T04:52:02;100267.56;;;18.92;53.39
44825;BME280;30542;47.928;2.138;2022-11-06T04:57:04;100270.25;;;18.97;53.35
44825;BME280;30542;47.928;2.138;2022-11-06T05:02:05;100250.81;;;19.02;53.73
44825;BME280;30542;47.928;2.138;2022-11-06T05:07:05;100257.25;;;19.06;53.10
44825;BME280;30542;47.928;2.138;2022-11-06T05:12:05;100251.63;;;19.07;53.53
44825;BME280;30542;47.928;2.138;2022-11-06T05:17:06;100244.72;;;19.11;53.73
44825;BME280;30542;47.928;2.138;2022-11-06T05:22:08;100224.72;;;19.14;53.39
44825;BME280;30542;47.928;2.138;2022-11-06T05:27:27;100179.84;;;19.11;53.25
44825;BME280;30542;47.928;2.138;2022-11-06T05:32:27;100183.88;;;19.24;53.27
44825;BME280;30542;47.928;2.138;2022-11-06T05:37:27;100202.56;;;19.24;53.24
44825;BME280;30542;47.928;2.138;2022-11-06T05:42:28;100201.25;;;19.26;53.13
44825;BME280;30542;47.928;2.138;2022-11-06T05:47:28;100206.09;;;19.29;53.23
44825;BME280;30542;47.928;2.138;2022-11-06T05:52:28;100195.94;;;19.31;53.09
44825;BME280;30542;47.928;2.138;2022-11-06T05:57:29;100199.97;;;19.34;53.18
44825;BME280;30542;47.928;2.138;2022-11-06T06:02:29;100184.47;;;19.36;53.19
44825;BME280;30542;47.928;2.138;2022-11-06T06:07:30;100169.78;;;19.38;53.14
44825;BME280;30542;47.928;2.138;2022-11-06T06:12:31;100151.38;;;19.37;53.23
44825;BME280;30542;47.928;2.138;2022-11-06T06:17:31;100150.81;;;19.40;53.01
44825;BME280;30542;47.928;2.138;2022-11-06T06:22:32;100152.44;;;19.41;53.05
44825;BME280;30542;47.928;2.138;2022-11-06T06:27:32;100141.50;;;19.43;52.89
44825;BME280;30542;47.928;2.138;2022-11-06T06:32:33;100024.13;;;18.75;52.86
44825;BME280;30542;47.928;2.138;2022-11-06T06:37:33;100110.25;;;19.38;52.51
44825;BME280;30542;47.928;2.138;2022-11-06T06:42:34;100130.00;;;19.47;52.58
44825;BME280;30542;47.928;2.138;2022-11-06T06:47:34;100129.50;;;19.45;52.82
44825;BME280;30542;47.928;2.138;2022-11-06T06:52:34;100122.56;;;19.49;52.64
44825;BME280;30542;47.928;2.138;2022-11-06T06:57:35;100119.06;;;19.49;52.75
44825;BME280;30542;47.928;2.138;2022-11-06T07:02:35;100107.03;;;19.51;52.61
44825;BME280;30542;47.928;2.138;2022-11-06T07:07:35;100085.69;;;19.51;52.38
44825;BME280;30542;47.928;2.138;2022-11-06T07:12:36;100084.59;;;19.52;52.53
44825;BME280;30542;47.928;2.138;2022-11-06T07:17:36;100084.06;;;19.55;52.52
44825;BME280;30542;47.928;2.138;2022-11-06T07:22:36;100092.09;;;19.55;52.52
44825;BME280;30542;47.928;2.138;2022-11-06T07:27:37;100096.63;;;19.55;52.24
44825;BME280;30542;47.928;2.138;2022-11-06T07:32:37;100080.59;;;19.50;52.13
44825;BME280;30542;47.928;2.138;2022-11-06T07:37:38;100085.69;;;19.56;52.13
44825;BME280;30542;47.928;2.138;2022-11-06T07:42:38;100088.13;;;19.63;51.79
44825;BME280;30542;47.928;2.138;2022-11-06T07:47:38;100094.53;;;19.62;52.10
44825;BME280;30542;47.928;2.138;2022-11-06T07:52:39;100095.34;;;19.63;52.31
44825;BME280;30542;47.928;2.138;2022-11-06T07:57:39;100088.13;;;19.63;52.51
44825;BME280;30542;47.928;2.138;2022-11-06T08:02:40;100092.91;;;19.61;52.95
44825;BME280;30542;47.928;2.138;2022-11-06T08:07:40;100075.56;;;19.64;53.26
44825;BME280;30542;47.928;2.138;2022-11-06T08:12:41;100084.66;;;19.68;53.27
44825;BME280;30542;47.928;2.138;2022-11-06T08:17:41;100081.44;;;19.66;53.30
44825;BME280;30542;47.928;2.138;2022-11-06T08:22:42;100064.59;;;19.65;53.10
44825;BME280;30542;47.928;2.138;2022-11-06T08:27:42;100075.56;;;19.64;53.63
44825;BME280;30542;47.928;2.138;2022-11-06T08:32:42;100086.53;;;19.67;53.52
44825;BME280;30542;47.928;2.138;2022-11-06T08:37:43;100068.91;;;19.66;53.71
44825;BME280;30542;47.928;2.138;2022-11-06T08:42:43;100068.06;;;19.66;53.63
44825;BME280;30542;47.928;2.138;2022-11-06T08:47:44;100067.03;;;19.67;53.67
44825;BME280;30542;47.928;2.138;2022-11-06T08:52:44;100049.91;;;19.78;53.50
44825;BME280;30542;47.928;2.138;2022-11-06T08:57:44;100050.97;;;19.92;53.63
44825;BME280;30542;47.928;2.138;2022-11-06T09:02:45;100039.75;;;19.95;53.53
44825;BME280;30542;47.928;2.138;2022-11-06T09:07:45;100022.63;;;19.96;53.59
44825;BME280;30542;47.928;2.138;2022-11-06T09:12:45;100031.69;;;20.00;53.27
44825;BME280;30542;47.928;2.138;2022-11-06T09:17:47;100024.19;;;20.02;53.45
44825;BME280;30542;47.928;2.138;2022-11-06T09:22:48;99995.06;;;20.01;53.25
44825;BME280;30542;47.928;2.138;2022-11-06T09:27:51;99977.97;;;19.97;53.49
44825;BME280;30542;47.928;2.138;2022-11-06T09:32:54;99975.59;;;19.95;53.72
44825;BME280;30542;47.928;2.138;2022-11-06T09:38:06;99947.81;;;19.91;53.63
44825;BME280;30542;47.928;2.138;2022-11-06T09:53:55;99972.66;;;19.92;53.58
44825;BME280;30542;47.928;2.138;2022-11-06T09:59:02;99958.50;;;19.91;53.61
44825;BME280;30542;47.928;2.138;2022-11-06T10:04:03;99941.88;;;19.94;53.43
44825;BME280;30542;47.928;2.138;2022-11-06T10:09:05;99944.03;;;19.92;53.51
44825;BME280;30542;47.928;2.138;2022-11-06T10:14:39;99967.03;;;19.93;53.25
44825;BME280;30542;47.928;2.138;2022-11-06T10:19:49;99960.09;;;19.92;53.21
44825;BME280;30542;47.928;2.138;2022-11-06T10:25:07;99970.78;;;19.92;53.80
44825;BME280;30542;47.928;2.138;2022-11-06T10:30:14;99974.00;;;19.84;54.13
44825;BME280;30542;47.928;2.138;2022-11-06T10:35:22;99981.50;;;19.77;55.46
44825;BME280;30542;47.928;2.138;2022-11-06T10:40:27;99976.16;;;19.72;56.55
44825;BME280;30542;47.928;2.138;2022-11-06T10:45:29;99955.06;;;19.65;56.08
44825;BME280;30542;47.928;2.138;2022-11-06T10:50:41;99955.63;;;19.62;55.31
44825;BME280;30542;47.928;2.138;2022-11-06T10:55:55;99934.22;;;19.52;56.01
44825;BME280;30542;47.928;2.138;2022-11-06T11:01:03;99929.69;;;19.47;55.97
44825;BME280;30542;47.928;2.138;2022-11-06T11:06:05;99949.44;;;19.56;56.19
44825;BME280;30542;47.928;2.138;2022-11-06T11:11:17;99936.38;;;19.50;56.41
44825;BME280;30542;47.928;2.138;2022-11-06T11:16:21;99907.28;;;19.38;56.70
44825;BME280;30542;47.928;2.138;2022-11-06T11:21:25;99931.81;;;19.50;56.21
44825;BME280;30542;47.928;2.138;2022-11-06T11:26:28;99925.41;;;19.46;56.48
44825;BME280;30542;47.928;2.138;2022-11-06T11:31:33;99929.94;;;19.41;56.10
44825;BME280;30542;47.928;2.138;2022-11-06T11:36:47;99927.00;;;19.47;56.16
44825;BME280;30542;47.928;2.138;2022-11-06T11:41:49;99907.53;;;19.47;56.58
44825;BME280;30542;47.928;2.138;2022-11-06T11:46:53;99892.56;;;19.46;56.31
44825;BME280;30542;47.928;2.138;2022-11-06T11:51:55;99872.78;;;19.47;56.65
44825;BME280;30542;47.928;2.138;2022-11-06T11:57:01;99854.38;;;19.40;57.31
44825;BME280;30542;47.928;2.138;2022-11-06T12:02:16;99851.97;;;19.44;56.99
44825;BME280;30542;47.928;2.138;2022-11-06T12:07:22;99831.13;;;19.41;57.21
44825;BME280;30542;47.928;2.138;2022-11-06T12:12:33;99812.44;;;19.41;57.53
44825;BME280;30542;47.928;2.138;2022-11-06T12:17:36;99812.97;;;19.43;57.34
44825;BME280;30542;47.928;2.138;2022-11-06T12:22:42;99780.94;;;19.32;57.65
44825;BME280;30542;47.928;2.138;2022-11-06T12:27:46;99793.75;;;19.41;57.37
44825;BME280;30542;47.928;2.138;2022-11-06T12:33:25;99801.50;;;19.42;58.15
44825;BME280;30542;47.928;2.138;2022-11-06T12:38:38;99783.06;;;19.41;57.88
44825;BME280;30542;47.928;2.138;2022-11-06T12:43:45;99764.66;;;19.39;58.12
44825;BME280;30542;47.928;2.138;2022-11-06T12:54:58;99760.91;;;19.40;58.14
44825;BME280;30542;47.928;2.138;2022-11-06T13:05:18;99772.38;;;19.41;57.65
44825;BME280;30542;47.928;2.138;2022-11-06T13:21:20;99750.78;;;19.37;58.10
44825;BME280;30542;47.928;2.138;2022-11-06T13:31:46;99760.41;;;19.33;58.31
44825;BME280;30542;47.928;2.138;2022-11-06T13:36:50;99771.59;;;19.35;57.86
44825;BME280;30542;47.928;2.138;2022-11-06T13:41:51;99768.44;;;19.33;58.08
44825;BME280;30542;47.928;2.138;2022-11-06T13:51:59;99757.75;;;19.33;57.87
44825;BME280;30542;47.928;2.138;2022-11-06T14:07:16;99762.53;;;19.31;57.83
44825;BME280;30542;47.928;2.138;2022-11-06T14:12:20;99771.63;;;19.30;58.08
44825;BME280;30542;47.928;2.138;2022-11-06T14:17:22;99771.38;;;19.26;58.28
44825;BME280;30542;47.928;2.138;2022-11-06T14:22:34;99774.81;;;19.32;57.92
44825;BME280;30542;47.928;2.138;2022-11-06T14:32:43;99765.50;;;19.29;57.98
44825;BME280;30542;47.928;2.138;2022-11-06T14:37:45;99754.03;;;19.29;57.71
44825;BME280;30542;47.928;2.138;2022-11-06T14:42:46;99759.91;;;19.26;57.91
44825;BME280;30542;47.928;2.138;2022-11-06T14:47:48;99771.88;;;19.28;57.85
44825;BME280;30542;47.928;2.138;2022-11-06T14:53:02;99769.00;;;19.25;57.40
44825;BME280;30542;47.928;2.138;2022-11-06T14:58:13;99799.41;;;19.29;57.61
44825;BME280;30542;47.928;2.138;2022-11-06T15:03:22;99796.19;;;19.27;57.39
44825;BME280;30542;47.928;2.138;2022-11-06T15:13:46;99794.59;;;19.26;57.29
44825;BME280;30542;47.928;2.138;2022-11-06T15:18:46;99799.94;;;19.31;57.22
44825;BME280;30542;47.928;2.138;2022-11-06T15:34:07;99817.25;;;19.44;56.88
44825;BME280;30542;47.928;2.138;2022-11-06T15:39:38;99815.38;;;19.44;56.81
44825;BME280;30542;47.928;2.138;2022-11-06T15:44:40;99822.34;;;19.45;56.31
44825;BME280;30542;47.928;2.138;2022-11-06T15:49:41;99822.34;;;19.45;56.34
44825;BME280;30542;47.928;2.138;2022-11-06T15:54:42;99827.91;;;19.49;56.11
44825;BME280;30542;47.928;2.138;2022-11-06T15:59:43;99830.88;;;19.42;56.77
44825;BME280;30542;47.928;2.138;2022-11-06T16:04:44;99828.47;;;19.41;56.75
44825;BME280;30542;47.928;2.138;2022-11-06T16:09:46;99814.34;;;19.30;57.46
44825;BME280;30542;47.928;2.138;2022-11-06T16:14:47;99829.28;;;19.36;56.01
44825;BME280;30542;47.928;2.138;2022-11-06T16:19:48;99826.13;;;19.29;56.13
44825;BME280;30542;47.928;2.138;2022-11-06T16:24:56;99825.56;;;19.27;55.73
44825;BME280;30542;47.928;2.138;2022-11-06T16:29:59;99831.47;;;19.19;56.13
44825;BME280;30542;47.928;2.138;2022-11-06T16:35:32;99837.34;;;19.21;56.36
44825;BME280;30542;47.928;2.138;2022-11-06T16:40:52;99845.03;;;19.32;55.74
44825;BME280;30542;47.928;2.138;2022-11-06T16:45:55;99851.19;;;19.38;55.90
44825;BME280;30542;47.928;2.138;2022-11-06T16:50:59;99858.94;;;19.34;56.33
44825;BME280;30542;47.928;2.138;2022-11-06T16:56:05;99852.25;;;19.32;55.84
44825;BME280;30542;47.928;2.138;2022-11-06T17:01:06;99863.47;;;19.34;56.05
44825;BME280;30542;47.928;2.138;2022-11-06T17:06:19;99870.69;;;19.28;55.79
44825;BME280;30542;47.928;2.138;2022-11-06T17:11:20;99872.81;;;19.31;56.01
44825;BME280;30542;47.928;2.138;2022-11-06T17:16:26;99877.66;;;19.29;56.32
44825;BME280;30542;47.928;2.138;2022-11-06T17:21:27;99886.16;;;19.31;56.08
44825;BME280;30542;47.928;2.138;2022-11-06T17:26:29;99879.25;;;19.30;56.10
44825;BME280;30542;47.928;2.138;2022-11-06T17:31:30;99886.44;;;19.30;56.04
44825;BME280;30542;47.928;2.138;2022-11-06T17:36:31;99889.09;;;19.35;55.67
44825;BME280;30542;47.928;2.138;2022-11-06T17:41:32;99898.47;;;19.37;55.31
44825;BME280;30542;47.928;2.138;2022-11-06T17:46:35;99905.69;;;19.37;54.68
44825;BME280;30542;47.928;2.138;2022-11-06T17:51:36;99912.06;;;19.41;54.96
44825;BME280;30542;47.928;2.138;2022-11-06T17:56:49;99914.75;;;19.41;54.48
44825;BME280;30542;47.928;2.138;2022-11-06T18:01:51;99917.94;;;19.43;54.46
44825;BME280;30542;47.928;2.138;2022-11-06T18:06:52;99916.88;;;19.39;54.07
44825;BME280;30542;47.928;2.138;2022-11-06T18:11:53;99921.69;;;19.42;54.29
44825;BME280;30542;47.928;2.138;2022-11-06T18:16:54;99928.34;;;19.45;54.28
44825;BME280;30542;47.928;2.138;2022-11-06T18:21:55;99932.38;;;19.42;53.82
44825;BME280;30542;47.928;2.138;2022-11-06T18:26:55;99935.81;;;19.48;53.95
44825;BME280;30542;47.928;2.138;2022-11-06T18:31:56;99943.84;;;19.48;53.55
44825;BME280;30542;47.928;2.138;2022-11-06T18:36:56;99946.78;;;19.51;53.69
44825;BME280;30542;47.928;2.138;2022-11-06T18:41:57;99951.03;;;19.52;53.70
44825;BME280;30542;47.928;2.138;2022-11-06T18:46:58;99943.03;;;19.52;53.74
44825;BME280;30542;47.928;2.138;2022-11-06T18:51:58;99961.19;;;19.55;53.75
44825;BME280;30542;47.928;2.138;2022-11-06T18:56:58;99951.06;;;19.47;54.01
44825;BME280;30542;47.928;2.138;2022-11-06T19:01:59;99962.53;;;19.48;54.73
44825;BME280;30542;47.928;2.138;2022-11-06T19:07:00;99978.03;;;19.46;54.89
44825;BME280;30542;47.928;2.138;2022-11-06T19:12:00;99975.34;;;19.41;54.80
44825;BME280;30542;47.928;2.138;2022-11-06T19:17:01;99980.44;;;19.42;54.95
44825;BME280;30542;47.928;2.138;2022-11-06T19:22:02;99988.47;;;19.42;55.21
44825;BME280;30542;47.928;2.138;2022-11-06T19:27:02;99986.31;;;19.34;54.82
44825;BME280;30542;47.928;2.138;2022-11-06T19:32:03;100004.47;;;19.42;55.00
44825;BME280;30542;47.928;2.138;2022-11-06T19:37:03;100015.16;;;19.42;54.75
44825;BME280;30542;47.928;2.138;2022-11-06T19:42:04;100025.28;;;19.40;55.36
44825;BME280;30542;47.928;2.138;2022-11-06T19:47:04;100032.25;;;19.41;54.82
44825;BME280;30542;47.928;2.138;2022-11-06T19:52:05;100025.31;;;19.35;55.27
44825;BME280;30542;47.928;2.138;2022-11-06T19:57:05;100035.72;;;19.31;55.80
44825;BME280;30542;47.928;2.138;2022-11-06T20:02:05;100045.88;;;19.34;55.72
44825;BME280;30542;47.928;2.138;2022-11-06T20:07:06;100040.81;;;19.38;55.64
44825;BME280;30542;47.928;2.138;2022-11-06T20:12:08;100040.25;;;19.36;54.93
44825;BME280;30542;47.928;2.138;2022-11-06T20:17:08;100053.34;;;19.37;55.45
44825;BME280;30542;47.928;2.138;2022-11-06T20:22:08;100059.75;;;19.36;55.26
44825;BME280;30542;47.928;2.138;2022-11-06T20:27:09;100069.38;;;19.37;54.62
44825;BME280;30542;47.928;2.138;2022-11-06T20:32:09;100063.50;;;19.35;54.79
44825;BME280;30542;47.928;2.138;2022-11-06T20:37:10;100080.59;;;19.40;54.38
44825;BME280;30542;47.928;2.138;2022-11-06T20:42:10;100092.63;;;19.37;54.47
44825;BME280;30542;47.928;2.138;2022-11-06T20:47:11;100101.16;;;19.39;54.32
44825;BME280;30542;47.928;2.138;2022-11-06T20:52:12;100102.75;;;19.40;54.60
44825;BME280;30542;47.928;2.138;2022-11-06T20:57:13;100108.09;;;19.40;54.34
44825;BME280;30542;47.928;2.138;2022-11-06T21:02:14;100105.19;;;19.42;54.15
44825;BME280;30542;47.928;2.138;2022-11-06T21:07:14;100107.56;;;19.43;54.03
44825;BME280;30542;47.928;2.138;2022-11-06T21:12:15;100109.72;;;19.41;54.34
44825;BME280;30542;47.928;2.138;2022-11-06T21:17:15;100112.13;;;19.43;54.14
44825;BME280;30542;47.928;2.138;2022-11-06T21:22:15;100112.13;;;19.43;53.77
44825;BME280;30542;47.928;2.138;2022-11-06T21:27:16;100130.00;;;19.42;53.84
44825;BME280;30542;47.928;2.138;2022-11-06T21:32:16;100128.13;;;19.43;53.82
44825;BME280;30542;47.928;2.138;2022-11-06T21:37:17;100138.03;;;19.42;53.98
44825;BME280;30542;47.928;2.138;2022-11-06T21:42:17;100146.28;;;19.41;53.90
44825;BME280;30542;47.928;2.138;2022-11-06T21:47:18;100150.81;;;19.35;53.94
44825;BME280;30542;47.928;2.138;2022-11-06T21:52:21;100155.63;;;19.33;54.10
44825;BME280;30542;47.928;2.138;2022-11-06T21:57:40;100152.94;;;19.28;54.08
44825;BME280;30542;47.928;2.138;2022-11-06T22:02:40;100148.13;;;19.25;53.91
44825;BME280;30542;47.928;2.138;2022-11-06T22:07:41;100151.59;;;19.20;54.00
44825;BME280;30542;47.928;2.138;2022-11-06T22:12:41;100156.88;;;19.15;54.05
44825;BME280;30542;47.928;2.138;2022-11-06T22:17:42;100151.03;;;19.13;54.18
44825;BME280;30542;47.928;2.138;2022-11-06T22:22:42;100149.16;;;19.08;54.14
44825;BME280;30542;47.928;2.138;2022-11-06T22:27:43;100155.53;;;19.07;54.45
44825;BME280;30542;47.928;2.138;2022-11-06T22:32:43;100157.66;;;19.05;54.08
44825;BME280;30542;47.928;2.138;2022-11-06T22:37:44;100155.50;;;18.97;54.01
44825;BME280;30542;47.928;2.138;2022-11-06T22:42:44;100165.66;;;19.00;54.43
44825;BME280;30542;47.928;2.138;2022-11-06T22:47:44;100171.25;;;18.99;54.45
44825;BME280;30542;47.928;2.138;2022-11-06T22:52:45;100168.84;;;18.97;54.01
44825;BME280;30542;47.928;2.138;2022-11-06T22:57:46;100172.59;;;18.96;54.25
44825;BME280;30542;47.928;2.138;2022-11-06T23:02:46;100168.03;;;18.92;54.97
44825;BME280;30542;47.928;2.138;2022-11-06T23:07:47;100184.00;;;18.86;54.53
44825;BME280;30542;47.928;2.138;2022-11-06T23:12:47;100194.66;;;18.81;54.79
44825;BME280;30542;47.928;2.138;2022-11-06T23:17:48;100185.84;;;18.81;54.36
44825;BME280;30542;47.928;2.138;2022-11-06T23:22:49;100179.97;;;18.79;54.81
44825;BME280;30542;47.928;2.138;2022-11-06T23:27:49;100194.63;;;18.76;54.91
44825;BME280;30542;47.928;2.138;2022-11-06T23:32:50;100174.59;;;18.74;55.01
44825;BME280;30542;47.928;2.138;2022-11-06T23:37:50;100192.19;;;18.70;55.06
44825;BME280;30542;47.928;2.138;2022-11-06T23:42:51;100190.25;;;18.65;55.05
44825;BME280;30542;47.928;2.138;2022-11-06T23:47:53;100168.88;;;18.55;54.70
44825;BME280;30542;47.928;2.138;2022-11-06T23:52:54;100194.28;;;18.68;54.78
44825;BME280;30542;47.928;2.138;2022-11-06T23:57:54;100114.19;;;18.15;54.88
